sensor_id;sensor_type;location;lat;lon;timestamp;P1;durP1;ratioP1;P2;durP2;ratioP2
40745;SDS011;26454;51.164;4.488;2023-03-16T00:01:41;8.60;;;5.80;;
40745;SDS011;26454;51.164;4.488;2023-03-16T00:04:07;8.60;;;5.80;;
40745;SDS011;26454;51.164;4.488;2023-03-16T00:06:33;7.55;;;5.32;;
40745;SDS011;26454;51.164;4.488;2023-03-16T00:09:01;10.70;;;6.35;;
40745;SDS011;26454;51.164;4.488;2023-03-16T00:11:27;7.90;;;5.47;;
40745;SDS011;26454;51.164;4.488;2023-03-16T00:13:54;9.98;;;5.78;;
40745;SDS011;26454;51.164;4.488;2023-03-16T00:16:20;8.02;;;5.72;;
40745;SDS011;26454;51.164;4.488;2023-03-16T00:18:46;8.18;;;5.47;;
40745;SDS011;26454;51.164;4.488;2023-03-16T00:21:12;7.55;;;5.25;;
40745;SDS011;26454;51.164;4.488;2023-03-16T00:23:38;9.32;;;5.40;;
40745;SDS011;26454;51.164;4.488;2023-03-16T00:26:07;7.28;;;5.10;;
40745;SDS011;26454;51.164;4.488;2023-03-16T00:28:39;7.88;;;5.03;;
40745;SDS011;26454;51.164;4.488;2023-03-16T00:31:12;10.57;;;5.80;;
40745;SDS011;26454;51.164;4.488;2023-03-16T00:33:40;6.45;;;5.05;;
40745;SDS011;26454;51.164;4.488;2023-03-16T00:36:07;8.07;;;5.30;;
40745;SDS011;26454;51.164;4.488;2023-03-16T00:38:37;7.60;;;5.45;;
40745;SDS011;26454;51.164;4.488;2023-03-16T00:41:05;8.73;;;4.80;;
40745;SDS011;26454;51.164;4.488;2023-03-16T00:43:32;7.97;;;5.50;;
40745;SDS011;26454;51.164;4.488;2023-03-16T00:46:08;9.93;;;5.30;;
40745;SDS011;26454;51.164;4.488;2023-03-16T00:48:38;7.70;;;5.07;;
40745;SDS011;26454;51.164;4.488;2023-03-16T00:51:07;8.73;;;5.00;;
40745;SDS011;26454;51.164;4.488;2023-03-16T00:53:35;7.85;;;5.15;;
40745;SDS011;26454;51.164;4.488;2023-03-16T00:56:01;9.68;;;5.43;;
40745;SDS011;26454;51.164;4.488;2023-03-16T00:58:29;6.75;;;5.10;;
40745;SDS011;26454;51.164;4.488;2023-03-16T01:01:00;8.27;;;5.70;;
40745;SDS011;26454;51.164;4.488;2023-03-16T01:03:26;8.73;;;6.07;;
40745;SDS011;26454;51.164;4.488;2023-03-16T01:05:54;6.70;;;4.25;;
40745;SDS011;26454;51.164;4.488;2023-03-16T01:08:24;7.82;;;5.03;;
40745;SDS011;26454;51.164;4.488;2023-03-16T01:10:55;5.97;;;4.93;;
40745;SDS011;26454;51.164;4.488;2023-03-16T01:13:21;15.43;;;4.55;;
40745;SDS011;26454;51.164;4.488;2023-03-16T01:15:49;7.72;;;5.32;;
40745;SDS011;26454;51.164;4.488;2023-03-16T01:18:16;9.60;;;5.18;;
40745;SDS011;26454;51.164;4.488;2023-03-16T01:20:47;9.27;;;4.68;;
40745;SDS011;26454;51.164;4.488;2023-03-16T01:23:15;10.43;;;5.05;;
40745;SDS011;26454;51.164;4.488;2023-03-16T01:25:44;9.32;;;5.43;;
40745;SDS011;26454;51.164;4.488;2023-03-16T01:28:20;7.85;;;5.70;;
40745;SDS011;26454;51.164;4.488;2023-03-16T01:30:50;8.43;;;4.70;;
40745;SDS011;26454;51.164;4.488;2023-03-16T01:33:19;13.35;;;4.55;;
40745;SDS011;26454;51.164;4.488;2023-03-16T01:38:24;8.02;;;4.57;;
40745;SDS011;26454;51.164;4.488;2023-03-16T01:40:50;11.27;;;4.90;;
40745;SDS011;26454;51.164;4.488;2023-03-16T01:43:19;8.23;;;4.90;;
40745;SDS011;26454;51.164;4.488;2023-03-16T01:48:21;8.60;;;4.30;;
40745;SDS011;26454;51.164;4.488;2023-03-16T01:50:50;6.65;;;4.05;;
40745;SDS011;26454;51.164;4.488;2023-03-16T01:53:17;11.73;;;5.10;;
40745;SDS011;26454;51.164;4.488;2023-03-16T01:55:43;6.07;;;4.20;;
40745;SDS011;26454;51.164;4.488;2023-03-16T01:58:11;5.68;;;4.60;;
40745;SDS011;26454;51.164;4.488;2023-03-16T02:00:38;5.22;;;4.43;;
40745;SDS011;26454;51.164;4.488;2023-03-16T02:03:08;7.80;;;4.68;;
40745;SDS011;26454;51.164;4.488;2023-03-16T02:05:39;7.95;;;4.07;;
40745;SDS011;26454;51.164;4.488;2023-03-16T02:08:07;12.30;;;4.80;;
40745;SDS011;26454;51.164;4.488;2023-03-16T02:10:34;8.23;;;4.63;;
40745;SDS011;26454;51.164;4.488;2023-03-16T02:13:01;7.38;;;3.92;;
40745;SDS011;26454;51.164;4.488;2023-03-16T02:15:28;10.20;;;4.90;;
40745;SDS011;26454;51.164;4.488;2023-03-16T02:17:55;7.10;;;4.30;;
40745;SDS011;26454;51.164;4.488;2023-03-16T02:22:58;8.13;;;4.20;;
40745;SDS011;26454;51.164;4.488;2023-03-16T02:28:07;7.38;;;3.97;;
40745;SDS011;26454;51.164;4.488;2023-03-16T02:30:35;8.63;;;4.22;;
40745;SDS011;26454;51.164;4.488;2023-03-16T02:33:01;9.75;;;4.40;;
40745;SDS011;26454;51.164;4.488;2023-03-16T02:35:29;9.10;;;4.05;;
40745;SDS011;26454;51.164;4.488;2023-03-16T02:38:01;7.00;;;3.78;;
40745;SDS011;26454;51.164;4.488;2023-03-16T02:40:28;12.07;;;4.57;;
40745;SDS011;26454;51.164;4.488;2023-03-16T02:43:03;9.32;;;4.07;;
40745;SDS011;26454;51.164;4.488;2023-03-16T02:45:31;6.93;;;3.85;;
40745;SDS011;26454;51.164;4.488;2023-03-16T02:48:00;5.78;;;3.40;;
40745;SDS011;26454;51.164;4.488;2023-03-16T02:50:27;6.53;;;4.30;;
40745;SDS011;26454;51.164;4.488;2023-03-16T02:52:54;8.38;;;4.25;;
40745;SDS011;26454;51.164;4.488;2023-03-16T02:55:20;4.63;;;3.63;;
40745;SDS011;26454;51.164;4.488;2023-03-16T02:57:47;7.95;;;4.03;;
40745;SDS011;26454;51.164;4.488;2023-03-16T03:00:13;8.57;;;3.55;;
40745;SDS011;26454;51.164;4.488;2023-03-16T03:02:42;6.88;;;4.25;;
40745;SDS011;26454;51.164;4.488;2023-03-16T03:05:08;9.45;;;4.18;;
40745;SDS011;26454;51.164;4.488;2023-03-16T03:07:34;9.57;;;4.10;;
40745;SDS011;26454;51.164;4.488;2023-03-16T03:10:03;6.57;;;4.60;;
40745;SDS011;26454;51.164;4.488;2023-03-16T03:12:30;8.60;;;4.43;;
40745;SDS011;26454;51.164;4.488;2023-03-16T03:14:56;7.10;;;4.15;;
40745;SDS011;26454;51.164;4.488;2023-03-16T03:17:22;5.53;;;3.53;;
40745;SDS011;26454;51.164;4.488;2023-03-16T03:19:54;8.43;;;4.47;;
40745;SDS011;26454;51.164;4.488;2023-03-16T03:22:20;8.30;;;4.90;;
40745;SDS011;26454;51.164;4.488;2023-03-16T03:24:46;5.63;;;3.90;;
40745;SDS011;26454;51.164;4.488;2023-03-16T03:27:12;8.75;;;3.40;;
40745;SDS011;26454;51.164;4.488;2023-03-16T03:29:38;7.85;;;4.22;;
40745;SDS011;26454;51.164;4.488;2023-03-16T03:32:05;7.22;;;4.15;;
40745;SDS011;26454;51.164;4.488;2023-03-16T03:34:32;6.38;;;4.43;;
40745;SDS011;26454;51.164;4.488;2023-03-16T03:36:58;11.38;;;3.97;;
40745;SDS011;26454;51.164;4.488;2023-03-16T03:39:25;7.38;;;4.15;;
40745;SDS011;26454;51.164;4.488;2023-03-16T03:41:51;6.95;;;4.32;;
40745;SDS011;26454;51.164;4.488;2023-03-16T03:44:21;7.93;;;3.83;;
40745;SDS011;26454;51.164;4.488;2023-03-16T03:46:47;7.70;;;4.28;;
40745;SDS011;26454;51.164;4.488;2023-03-16T03:49:13;5.18;;;4.15;;
40745;SDS011;26454;51.164;4.488;2023-03-16T03:51:41;9.90;;;4.25;;
40745;SDS011;26454;51.164;4.488;2023-03-16T03:54:07;6.65;;;4.40;;
40745;SDS011;26454;51.164;4.488;2023-03-16T03:56:34;6.70;;;4.20;;
40745;SDS011;26454;51.164;4.488;2023-03-16T03:59:00;10.00;;;3.65;;
40745;SDS011;26454;51.164;4.488;2023-03-16T04:01:26;4.35;;;3.70;;
40745;SDS011;26454;51.164;4.488;2023-03-16T04:03:52;7.15;;;3.65;;
40745;SDS011;26454;51.164;4.488;2023-03-16T04:06:18;7.22;;;4.05;;
40745;SDS011;26454;51.164;4.488;2023-03-16T04:08:45;8.32;;;4.13;;
40745;SDS011;26454;51.164;4.488;2023-03-16T04:11:12;9.90;;;4.40;;
40745;SDS011;26454;51.164;4.488;2023-03-16T04:13:38;8.10;;;4.25;;
40745;SDS011;26454;51.164;4.488;2023-03-16T04:16:05;7.82;;;4.18;;
40745;SDS011;26454;51.164;4.488;2023-03-16T04:18:31;6.60;;;4.25;;
40745;SDS011;26454;51.164;4.488;2023-03-16T04:21:03;7.70;;;3.22;;
40745;SDS011;26454;51.164;4.488;2023-03-16T04:23:30;6.03;;;4.30;;
40745;SDS011;26454;51.164;4.488;2023-03-16T04:25:58;9.27;;;4.32;;
40745;SDS011;26454;51.164;4.488;2023-03-16T04:28:24;6.43;;;3.55;;
40745;SDS011;26454;51.164;4.488;2023-03-16T04:30:51;5.72;;;3.78;;
40745;SDS011;26454;51.164;4.488;2023-03-16T04:33:19;8.32;;;4.40;;
40745;SDS011;26454;51.164;4.488;2023-03-16T04:35:47;9.77;;;4.17;;
40745;SDS011;26454;51.164;4.488;2023-03-16T04:38:16;4.18;;;3.75;;
40745;SDS011;26454;51.164;4.488;2023-03-16T04:40:42;8.77;;;4.30;;
40745;SDS011;26454;51.164;4.488;2023-03-16T04:43:09;8.68;;;5.28;;
40745;SDS011;26454;51.164;4.488;2023-03-16T04:45:37;6.32;;;4.03;;
40745;SDS011;26454;51.164;4.488;2023-03-16T04:48:03;9.80;;;4.18;;
40745;SDS011;26454;51.164;4.488;2023-03-16T04:50:29;8.18;;;4.55;;
40745;SDS011;26454;51.164;4.488;2023-03-16T04:52:56;10.93;;;4.18;;
40745;SDS011;26454;51.164;4.488;2023-03-16T04:55:22;12.23;;;4.78;;
40745;SDS011;26454;51.164;4.488;2023-03-16T04:57:51;7.18;;;4.63;;
40745;SDS011;26454;51.164;4.488;2023-03-16T05:00:17;8.95;;;5.40;;
40745;SDS011;26454;51.164;4.488;2023-03-16T05:02:46;9.77;;;5.80;;
40745;SDS011;26454;51.164;4.488;2023-03-16T05:05:13;9.52;;;5.72;;
40745;SDS011;26454;51.164;4.488;2023-03-16T05:07:39;11.90;;;5.82;;
40745;SDS011;26454;51.164;4.488;2023-03-16T05:10:08;9.18;;;5.93;;
40745;SDS011;26454;51.164;4.488;2023-03-16T05:12:34;7.40;;;5.20;;
40745;SDS011;26454;51.164;4.488;2023-03-16T05:15:02;13.70;;;5.63;;
40745;SDS011;26454;51.164;4.488;2023-03-16T05:17:31;10.85;;;5.88;;
40745;SDS011;26454;51.164;4.488;2023-03-16T05:19:59;8.85;;;5.60;;
40745;SDS011;26454;51.164;4.488;2023-03-16T05:22:25;11.13;;;5.13;;
40745;SDS011;26454;51.164;4.488;2023-03-16T05:24:51;5.50;;;4.80;;
40745;SDS011;26454;51.164;4.488;2023-03-16T05:27:17;10.68;;;4.78;;
40745;SDS011;26454;51.164;4.488;2023-03-16T05:29:44;8.25;;;5.43;;
40745;SDS011;26454;51.164;4.488;2023-03-16T05:32:13;11.90;;;4.47;;
40745;SDS011;26454;51.164;4.488;2023-03-16T05:34:41;6.95;;;4.78;;
40745;SDS011;26454;51.164;4.488;2023-03-16T05:39:37;8.20;;;4.43;;
40745;SDS011;26454;51.164;4.488;2023-03-16T05:42:05;10.82;;;4.22;;
40745;SDS011;26454;51.164;4.488;2023-03-16T05:44:34;9.30;;;4.38;;
40745;SDS011;26454;51.164;4.488;2023-03-16T05:47:00;7.25;;;4.15;;
40745;SDS011;26454;51.164;4.488;2023-03-16T05:49:27;6.85;;;4.35;;
40745;SDS011;26454;51.164;4.488;2023-03-16T05:51:55;10.50;;;4.35;;
40745;SDS011;26454;51.164;4.488;2023-03-16T05:54:24;10.38;;;4.32;;
40745;SDS011;26454;51.164;4.488;2023-03-16T05:56:50;9.10;;;4.43;;
40745;SDS011;26454;51.164;4.488;2023-03-16T05:59:16;8.05;;;3.80;;
40745;SDS011;26454;51.164;4.488;2023-03-16T06:01:45;13.02;;;4.18;;
40745;SDS011;26454;51.164;4.488;2023-03-16T06:04:13;8.35;;;3.60;;
40745;SDS011;26454;51.164;4.488;2023-03-16T06:06:39;6.80;;;4.35;;
40745;SDS011;26454;51.164;4.488;2023-03-16T06:09:06;9.32;;;4.30;;
40745;SDS011;26454;51.164;4.488;2023-03-16T06:11:33;6.93;;;3.97;;
40745;SDS011;26454;51.164;4.488;2023-03-16T06:14:00;6.70;;;3.90;;
40745;SDS011;26454;51.164;4.488;2023-03-16T06:16:27;8.77;;;4.10;;
40745;SDS011;26454;51.164;4.488;2023-03-16T06:18:53;11.38;;;4.03;;
40745;SDS011;26454;51.164;4.488;2023-03-16T06:21:20;7.88;;;3.90;;
40745;SDS011;26454;51.164;4.488;2023-03-16T06:23:47;5.30;;;3.63;;
40745;SDS011;26454;51.164;4.488;2023-03-16T06:26:13;5.88;;;3.60;;
40745;SDS011;26454;51.164;4.488;2023-03-16T06:28:39;10.52;;;3.63;;
40745;SDS011;26454;51.164;4.488;2023-03-16T06:31:10;8.52;;;3.80;;
40745;SDS011;26454;51.164;4.488;2023-03-16T06:33:40;6.30;;;3.55;;
40745;SDS011;26454;51.164;4.488;2023-03-16T06:36:08;6.75;;;3.13;;
40745;SDS011;26454;51.164;4.488;2023-03-16T06:41:20;6.00;;;3.38;;
40745;SDS011;26454;51.164;4.488;2023-03-16T06:43:46;5.50;;;3.25;;
40745;SDS011;26454;51.164;4.488;2023-03-16T06:46:14;4.03;;;3.20;;
40745;SDS011;26454;51.164;4.488;2023-03-16T06:51:39;8.73;;;3.58;;
40745;SDS011;26454;51.164;4.488;2023-03-16T06:54:23;7.57;;;3.05;;
40745;SDS011;26454;51.164;4.488;2023-03-16T06:56:58;8.50;;;3.05;;
40745;SDS011;26454;51.164;4.488;2023-03-16T06:59:35;8.60;;;3.30;;
40745;SDS011;26454;51.164;4.488;2023-03-16T07:02:13;5.47;;;3.30;;
40745;SDS011;26454;51.164;4.488;2023-03-16T07:04:41;5.03;;;2.60;;
40745;SDS011;26454;51.164;4.488;2023-03-16T07:07:15;5.82;;;3.28;;
40745;SDS011;26454;51.164;4.488;2023-03-16T07:10:10;5.97;;;3.42;;
40745;SDS011;26454;51.164;4.488;2023-03-16T07:12:36;7.95;;;3.35;;
40745;SDS011;26454;51.164;4.488;2023-03-16T07:15:06;7.65;;;2.95;;
40745;SDS011;26454;51.164;4.488;2023-03-16T07:17:36;7.85;;;3.78;;
40745;SDS011;26454;51.164;4.488;2023-03-16T07:20:09;5.15;;;2.70;;
40745;SDS011;26454;51.164;4.488;2023-03-16T07:25:35;6.88;;;3.33;;
40745;SDS011;26454;51.164;4.488;2023-03-16T07:28:34;5.50;;;3.58;;
40745;SDS011;26454;51.164;4.488;2023-03-16T07:31:46;6.97;;;2.97;;
40745;SDS011;26454;51.164;4.488;2023-03-16T07:34:19;5.28;;;2.47;;
40745;SDS011;26454;51.164;4.488;2023-03-16T07:36:50;5.88;;;2.65;;
40745;SDS011;26454;51.164;4.488;2023-03-16T07:39:22;4.15;;;2.67;;
40745;SDS011;26454;51.164;4.488;2023-03-16T07:42:09;5.70;;;2.40;;
40745;SDS011;26454;51.164;4.488;2023-03-16T07:44:55;6.00;;;3.03;;
40745;SDS011;26454;51.164;4.488;2023-03-16T07:47:50;6.03;;;2.63;;
40745;SDS011;26454;51.164;4.488;2023-03-16T07:50:52;4.50;;;2.60;;
40745;SDS011;26454;51.164;4.488;2023-03-16T07:53:21;6.70;;;2.70;;
40745;SDS011;26454;51.164;4.488;2023-03-16T07:56:07;6.75;;;2.33;;
40745;SDS011;26454;51.164;4.488;2023-03-16T07:58:46;4.30;;;2.92;;
40745;SDS011;26454;51.164;4.488;2023-03-16T08:01:15;5.85;;;2.92;;
40745;SDS011;26454;51.164;4.488;2023-03-16T08:03:47;7.28;;;2.50;;
40745;SDS011;26454;51.164;4.488;2023-03-16T08:07:04;6.85;;;2.47;;
40745;SDS011;26454;51.164;4.488;2023-03-16T08:12:55;7.78;;;2.30;;
40745;SDS011;26454;51.164;4.488;2023-03-16T08:15:30;5.05;;;2.45;;
40745;SDS011;26454;51.164;4.488;2023-03-16T08:18:10;5.70;;;2.60;;
40745;SDS011;26454;51.164;4.488;2023-03-16T08:21:15;4.65;;;2.53;;
40745;SDS011;26454;51.164;4.488;2023-03-16T08:24:01;3.05;;;2.20;;
40745;SDS011;26454;51.164;4.488;2023-03-16T08:27:20;5.68;;;2.45;;
40745;SDS011;26454;51.164;4.488;2023-03-16T08:30:11;8.50;;;2.70;;
40745;SDS011;26454;51.164;4.488;2023-03-16T08:36:47;4.90;;;2.33;;
40745;SDS011;26454;51.164;4.488;2023-03-16T08:39:17;3.03;;;1.95;;
40745;SDS011;26454;51.164;4.488;2023-03-16T08:45:04;2.88;;;2.28;;
40745;SDS011;26454;51.164;4.488;2023-03-16T08:47:41;4.43;;;2.03;;
40745;SDS011;26454;51.164;4.488;2023-03-16T08:50:20;2.55;;;2.00;;
40745;SDS011;26454;51.164;4.488;2023-03-16T08:53:10;10.63;;;2.42;;
40745;SDS011;26454;51.164;4.488;2023-03-16T08:56:02;5.45;;;2.17;;
40745;SDS011;26454;51.164;4.488;2023-03-16T09:01:50;5.80;;;2.63;;
40745;SDS011;26454;51.164;4.488;2023-03-16T09:07:18;3.10;;;1.92;;
40745;SDS011;26454;51.164;4.488;2023-03-16T09:09:47;3.40;;;1.77;;
40745;SDS011;26454;51.164;4.488;2023-03-16T09:12:13;9.65;;;2.65;;
40745;SDS011;26454;51.164;4.488;2023-03-16T09:14:39;6.25;;;1.92;;
40745;SDS011;26454;51.164;4.488;2023-03-16T09:17:06;5.78;;;2.30;;
40745;SDS011;26454;51.164;4.488;2023-03-16T09:19:35;2.38;;;2.17;;
40745;SDS011;26454;51.164;4.488;2023-03-16T09:22:01;4.55;;;1.83;;
40745;SDS011;26454;51.164;4.488;2023-03-16T09:24:28;6.53;;;1.55;;
40745;SDS011;26454;51.164;4.488;2023-03-16T09:26:54;4.07;;;1.67;;
40745;SDS011;26454;51.164;4.488;2023-03-16T09:29:21;3.05;;;1.55;;
40745;SDS011;26454;51.164;4.488;2023-03-16T09:31:48;5.28;;;1.83;;
40745;SDS011;26454;51.164;4.488;2023-03-16T09:34:14;3.60;;;1.88;;
40745;SDS011;26454;51.164;4.488;2023-03-16T09:36:42;5.53;;;1.80;;
40745;SDS011;26454;51.164;4.488;2023-03-16T09:39:09;5.20;;;1.63;;
40745;SDS011;26454;51.164;4.488;2023-03-16T09:41:40;2.60;;;1.65;;
40745;SDS011;26454;51.164;4.488;2023-03-16T09:46:53;7.35;;;1.67;;
40745;SDS011;26454;51.164;4.488;2023-03-16T09:49:22;9.50;;;1.75;;
40745;SDS011;26454;51.164;4.488;2023-03-16T09:51:53;2.13;;;1.65;;
40745;SDS011;26454;51.164;4.488;2023-03-16T09:56:57;5.05;;;2.28;;
40745;SDS011;26454;51.164;4.488;2023-03-16T09:59:26;5.00;;;1.70;;
40745;SDS011;26454;51.164;4.488;2023-03-16T10:04:37;5.03;;;1.75;;
40745;SDS011;26454;51.164;4.488;2023-03-16T10:07:16;4.28;;;1.38;;
40745;SDS011;26454;51.164;4.488;2023-03-16T10:09:55;3.72;;;1.67;;
40745;SDS011;26454;51.164;4.488;2023-03-16T10:12:29;1.50;;;1.25;;
40745;SDS011;26454;51.164;4.488;2023-03-16T10:15:00;3.65;;;1.90;;
40745;SDS011;26454;51.164;4.488;2023-03-16T10:17:30;4.35;;;1.40;;
40745;SDS011;26454;51.164;4.488;2023-03-16T10:20:00;4.10;;;1.85;;
40745;SDS011;26454;51.164;4.488;2023-03-16T10:22:33;2.85;;;1.52;;
40745;SDS011;26454;51.164;4.488;2023-03-16T10:30:28;3.25;;;1.65;;
40745;SDS011;26454;51.164;4.488;2023-03-16T10:32:55;3.53;;;1.65;;
40745;SDS011;26454;51.164;4.488;2023-03-16T10:40:52;2.92;;;1.10;;
40745;SDS011;26454;51.164;4.488;2023-03-16T10:43:21;5.85;;;1.67;;
40745;SDS011;26454;51.164;4.488;2023-03-16T10:48:19;4.60;;;1.58;;
40745;SDS011;26454;51.164;4.488;2023-03-16T10:50:49;7.28;;;2.53;;
40745;SDS011;26454;51.164;4.488;2023-03-16T10:53:20;4.10;;;1.77;;
40745;SDS011;26454;51.164;4.488;2023-03-16T10:55:47;2.08;;;1.38;;
40745;SDS011;26454;51.164;4.488;2023-03-16T11:00:52;3.80;;;1.58;;
40745;SDS011;26454;51.164;4.488;2023-03-16T11:03:26;4.10;;;1.73;;
40745;SDS011;26454;51.164;4.488;2023-03-16T11:05:57;5.43;;;1.48;;
40745;SDS011;26454;51.164;4.488;2023-03-16T11:08:35;2.95;;;1.23;;
40745;SDS011;26454;51.164;4.488;2023-03-16T11:13:31;2.28;;;1.48;;
40745;SDS011;26454;51.164;4.488;2023-03-16T11:16:01;2.53;;;1.60;;
40745;SDS011;26454;51.164;4.488;2023-03-16T11:21:12;3.83;;;1.42;;
40745;SDS011;26454;51.164;4.488;2023-03-16T11:23:48;4.15;;;1.42;;
40745;SDS011;26454;51.164;4.488;2023-03-16T11:26:24;3.65;;;1.20;;
40745;SDS011;26454;51.164;4.488;2023-03-16T11:31:24;2.78;;;1.40;;
40745;SDS011;26454;51.164;4.488;2023-03-16T11:33:53;3.80;;;1.38;;
40745;SDS011;26454;51.164;4.488;2023-03-16T11:36:26;2.97;;;1.20;;
40745;SDS011;26454;51.164;4.488;2023-03-16T11:39:05;7.22;;;1.55;;
40745;SDS011;26454;51.164;4.488;2023-03-16T11:44:50;4.65;;;1.63;;
40745;SDS011;26454;51.164;4.488;2023-03-16T11:52:46;2.22;;;1.42;;
40745;SDS011;26454;51.164;4.488;2023-03-16T11:55:20;3.20;;;1.45;;
40745;SDS011;26454;51.164;4.488;2023-03-16T11:57:56;3.13;;;1.50;;
40745;SDS011;26454;51.164;4.488;2023-03-16T12:00:30;4.07;;;0.98;;
40745;SDS011;26454;51.164;4.488;2023-03-16T12:05:54;4.10;;;1.15;;
40745;SDS011;26454;51.164;4.488;2023-03-16T12:08:24;2.67;;;1.00;;
40745;SDS011;26454;51.164;4.488;2023-03-16T12:11:01;4.22;;;1.10;;
40745;SDS011;26454;51.164;4.488;2023-03-16T12:13:36;1.73;;;0.80;;
40745;SDS011;26454;51.164;4.488;2023-03-16T12:16:18;8.23;;;1.20;;
40745;SDS011;26454;51.164;4.488;2023-03-16T12:18:50;2.55;;;1.00;;
40745;SDS011;26454;51.164;4.488;2023-03-16T12:21:20;3.70;;;0.90;;
40745;SDS011;26454;51.164;4.488;2023-03-16T12:26:15;1.30;;;0.85;;
40745;SDS011;26454;51.164;4.488;2023-03-16T12:28:41;3.55;;;1.15;;
40745;SDS011;26454;51.164;4.488;2023-03-16T12:31:16;2.33;;;1.20;;
40745;SDS011;26454;51.164;4.488;2023-03-16T12:33:53;3.85;;;1.13;;
40745;SDS011;26454;51.164;4.488;2023-03-16T12:36:30;2.63;;;1.27;;
40745;SDS011;26454;51.164;4.488;2023-03-16T12:39:00;3.50;;;1.15;;
40745;SDS011;26454;51.164;4.488;2023-03-16T12:41:42;1.42;;;1.15;;
40745;SDS011;26454;51.164;4.488;2023-03-16T12:44:12;3.25;;;1.00;;
40745;SDS011;26454;51.164;4.488;2023-03-16T12:46:47;6.10;;;1.48;;
40745;SDS011;26454;51.164;4.488;2023-03-16T12:49:22;3.50;;;1.23;;
40745;SDS011;26454;51.164;4.488;2023-03-16T12:54:31;2.83;;;1.00;;
40745;SDS011;26454;51.164;4.488;2023-03-16T12:57:05;2.90;;;1.70;;
40745;SDS011;26454;51.164;4.488;2023-03-16T12:59:46;2.80;;;1.00;;
40745;SDS011;26454;51.164;4.488;2023-03-16T13:02:16;4.50;;;1.70;;
40745;SDS011;26454;51.164;4.488;2023-03-16T13:04:47;3.60;;;0.90;;
40745;SDS011;26454;51.164;4.488;2023-03-16T13:07:29;3.75;;;1.15;;
40745;SDS011;26454;51.164;4.488;2023-03-16T13:10:00;1.77;;;0.98;;
40745;SDS011;26454;51.164;4.488;2023-03-16T13:12:30;3.20;;;1.05;;
40745;SDS011;26454;51.164;4.488;2023-03-16T13:14:57;6.45;;;1.17;;
40745;SDS011;26454;51.164;4.488;2023-03-16T13:17:33;1.50;;;1.20;;
40745;SDS011;26454;51.164;4.488;2023-03-16T13:20:04;3.10;;;1.30;;
40745;SDS011;26454;51.164;4.488;2023-03-16T13:25:18;2.20;;;1.13;;
40745;SDS011;26454;51.164;4.488;2023-03-16T13:27:47;2.20;;;0.97;;
40745;SDS011;26454;51.164;4.488;2023-03-16T13:30:21;3.25;;;1.20;;
40745;SDS011;26454;51.164;4.488;2023-03-16T13:32:59;4.03;;;1.23;;
40745;SDS011;26454;51.164;4.488;2023-03-16T13:35:31;2.22;;;1.00;;
40745;SDS011;26454;51.164;4.488;2023-03-16T13:38:02;3.08;;;1.10;;
40745;SDS011;26454;51.164;4.488;2023-03-16T13:40:30;2.97;;;0.88;;
40745;SDS011;26454;51.164;4.488;2023-03-16T13:42:57;4.18;;;1.10;;
40745;SDS011;26454;51.164;4.488;2023-03-16T13:45:32;3.75;;;1.23;;
40745;SDS011;26454;51.164;4.488;2023-03-16T13:48:00;1.80;;;0.98;;
40745;SDS011;26454;51.164;4.488;2023-03-16T13:50:34;4.32;;;0.82;;
40745;SDS011;26454;51.164;4.488;2023-03-16T13:53:22;2.30;;;0.80;;
40745;SDS011;26454;51.164;4.488;2023-03-16T13:55:54;6.10;;;1.10;;
40745;SDS011;26454;51.164;4.488;2023-03-16T13:58:30;5.10;;;1.30;;
40745;SDS011;26454;51.164;4.488;2023-03-16T14:01:00;1.90;;;1.02;;
40745;SDS011;26454;51.164;4.488;2023-03-16T14:05:57;3.50;;;1.40;;
40745;SDS011;26454;51.164;4.488;2023-03-16T14:08:32;3.33;;;1.00;;
40745;SDS011;26454;51.164;4.488;2023-03-16T14:11:13;3.78;;;1.08;;
40745;SDS011;26454;51.164;4.488;2023-03-16T14:13:40;1.85;;;0.90;;
40745;SDS011;26454;51.164;4.488;2023-03-16T14:16:10;3.90;;;0.90;;
40745;SDS011;26454;51.164;4.488;2023-03-16T14:18:39;2.03;;;0.85;;
40745;SDS011;26454;51.164;4.488;2023-03-16T14:21:13;2.25;;;0.90;;
40745;SDS011;26454;51.164;4.488;2023-03-16T14:23:45;4.90;;;1.23;;
40745;SDS011;26454;51.164;4.488;2023-03-16T14:26:13;1.17;;;0.88;;
40745;SDS011;26454;51.164;4.488;2023-03-16T14:31:30;3.85;;;1.02;;
40745;SDS011;26454;51.164;4.488;2023-03-16T14:34:00;2.47;;;0.90;;
40745;SDS011;26454;51.164;4.488;2023-03-16T14:36:33;6.18;;;1.40;;
40745;SDS011;26454;51.164;4.488;2023-03-16T14:39:08;2.40;;;1.27;;
40745;SDS011;26454;51.164;4.488;2023-03-16T14:41:35;3.55;;;1.10;;
40745;SDS011;26454;51.164;4.488;2023-03-16T14:44:11;2.08;;;0.70;;
40745;SDS011;26454;51.164;4.488;2023-03-16T14:46:41;0.90;;;0.70;;
40745;SDS011;26454;51.164;4.488;2023-03-16T14:49:13;2.63;;;0.90;;
40745;SDS011;26454;51.164;4.488;2023-03-16T14:51:42;1.63;;;1.17;;
40745;SDS011;26454;51.164;4.488;2023-03-16T14:54:13;3.50;;;1.20;;
40745;SDS011;26454;51.164;4.488;2023-03-16T14:56:40;2.38;;;1.20;;
40745;SDS011;26454;51.164;4.488;2023-03-16T14:59:09;2.30;;;1.00;;
40745;SDS011;26454;51.164;4.488;2023-03-16T15:09:54;1.83;;;1.00;;
40745;SDS011;26454;51.164;4.488;2023-03-16T15:15:00;3.45;;;0.70;;
40745;SDS011;26454;51.164;4.488;2023-03-16T15:17:36;1.83;;;1.15;;
40745;SDS011;26454;51.164;4.488;2023-03-16T15:20:02;1.27;;;0.90;;
40745;SDS011;26454;51.164;4.488;2023-03-16T15:22:30;2.65;;;1.00;;
40745;SDS011;26454;51.164;4.488;2023-03-16T15:24:57;1.73;;;1.10;;
40745;SDS011;26454;51.164;4.488;2023-03-16T15:27:27;1.98;;;1.13;;
40745;SDS011;26454;51.164;4.488;2023-03-16T15:29:55;2.85;;;1.02;;
40745;SDS011;26454;51.164;4.488;2023-03-16T15:32:22;3.40;;;1.08;;
40745;SDS011;26454;51.164;4.488;2023-03-16T15:34:50;3.63;;;1.00;;
40745;SDS011;26454;51.164;4.488;2023-03-16T15:37:19;4.28;;;1.17;;
40745;SDS011;26454;51.164;4.488;2023-03-16T15:39:51;1.30;;;0.80;;
40745;SDS011;26454;51.164;4.488;2023-03-16T15:42:18;2.20;;;0.90;;
40745;SDS011;26454;51.164;4.488;2023-03-16T15:44:45;1.75;;;0.80;;
40745;SDS011;26454;51.164;4.488;2023-03-16T15:47:12;1.50;;;1.08;;
40745;SDS011;26454;51.164;4.488;2023-03-16T15:49:39;4.82;;;1.00;;
40745;SDS011;26454;51.164;4.488;2023-03-16T15:52:06;1.15;;;0.90;;
40745;SDS011;26454;51.164;4.488;2023-03-16T15:54:34;2.70;;;1.30;;
40745;SDS011;26454;51.164;4.488;2023-03-16T15:57:08;2.67;;;1.20;;
40745;SDS011;26454;51.164;4.488;2023-03-16T15:59:36;7.40;;;1.42;;
40745;SDS011;26454;51.164;4.488;2023-03-16T16:02:02;3.10;;;1.25;;
40745;SDS011;26454;51.164;4.488;2023-03-16T16:04:34;1.60;;;1.08;;
40745;SDS011;26454;51.164;4.488;2023-03-16T16:07:00;3.17;;;1.00;;
40745;SDS011;26454;51.164;4.488;2023-03-16T16:09:30;2.47;;;0.70;;
40745;SDS011;26454;51.164;4.488;2023-03-16T16:12:15;2.15;;;1.25;;
40745;SDS011;26454;51.164;4.488;2023-03-16T16:14:51;4.07;;;0.80;;
40745;SDS011;26454;51.164;4.488;2023-03-16T16:17:28;3.03;;;1.55;;
40745;SDS011;26454;51.164;4.488;2023-03-16T16:20:14;2.80;;;1.10;;
40745;SDS011;26454;51.164;4.488;2023-03-16T16:22:57;4.40;;;1.20;;
40745;SDS011;26454;51.164;4.488;2023-03-16T16:25:30;1.98;;;1.30;;
40745;SDS011;26454;51.164;4.488;2023-03-16T16:27:59;3.08;;;1.15;;
40745;SDS011;26454;51.164;4.488;2023-03-16T16:30:30;2.88;;;1.10;;
40745;SDS011;26454;51.164;4.488;2023-03-16T16:33:01;2.28;;;1.13;;
40745;SDS011;26454;51.164;4.488;2023-03-16T16:35:31;2.25;;;1.15;;
40745;SDS011;26454;51.164;4.488;2023-03-16T16:38:08;3.83;;;1.10;;
40745;SDS011;26454;51.164;4.488;2023-03-16T16:40:37;1.52;;;1.02;;
40745;SDS011;26454;51.164;4.488;2023-03-16T16:43:17;3.15;;;1.02;;
40745;SDS011;26454;51.164;4.488;2023-03-16T16:45:50;1.88;;;1.13;;
40745;SDS011;26454;51.164;4.488;2023-03-16T16:48:24;3.20;;;1.17;;
40745;SDS011;26454;51.164;4.488;2023-03-16T16:50:54;3.85;;;1.52;;
40745;SDS011;26454;51.164;4.488;2023-03-16T16:53:20;3.72;;;1.60;;